首页
METAR-TAF:

METAR-TAF

机场 :

鲁昂, 法国

纬度: 49-23N, 经度: 001-11E, 海拔: 157米

当前天气观测

该预报发布于18分钟前的08:00 UTC
风速6节,风向
温度 4°C
湿度 100%
气压 1015 hPa
能見度: 0400

METAR: LFOP 260800Z AUTO 17006KT 0400 R22/0450N FG VV/// 04/04 Q1015 NOSIG

时间: 09:18 (08:18 UTC)

预报

该预报发布于3小时和18分钟前的05:00 UTC
预报有效从26日的 06点(UTC)到 27日的 06点(UTC)
风速8节,风向
能見度: 4000
散云层高于700英尺
阴天层高于2000英尺
轻雾
成为
从 26日的 06点(UTC)到 26日的 08点(UTC)
能見度: 2000
阴天层高于300英尺
几率 30%
从 26日的 07点(UTC)到 26日的 11点(UTC)
能見度: 0500
成为
从 26日的 11点(UTC)到 26日的 14点(UTC)
能見度: 7000
多云层高于700英尺
多云层高于3000英尺
短暂存在
从 26日的 17点(UTC)到 26日的 24点(UTC)
能見度: 2000
阴天层高于300英尺
毛毛雨, 雨, 轻雾
短暂存在
从 27日的 00点(UTC)到 27日的 06点(UTC)
阴天层高于300英尺

TAF: LFOP 260500Z 2606/2706 19008KT 4000 BR SCT007 OVC020 BECMG 2606/2608 2000 OVC003 PROB30 2607/2611 0500 FG VV/// BECMG 2611/2614 7000 NSW BKN007 BKN030 TEMPO 2617/2624 2000 DZRA BR OVC003 TEMPO 2700/2706 OVC003

超过4000个机场的气象观测和天气预报(METAR&TAF报告)。

可查询的气象台以黄色和红色小点在地图上表示。

将鼠标移到小点上方,可查看气象台名称。

然后点击查看天气观测和预报。

如需切换地图:点击带黑十字的绿色按钮放大地图;点击带横线的绿色按钮缩小地图;或者点击绿色箭头查看邻近地区的地图。


METAR-TAF: